Time;durP1;ratioP1;P1;durP2;ratioP2;P2;SDS_P1;SDS_P2;PMS_P1;PMS_P2;Temp;Humidity;BMP_temperature;BMP_pressure;BME280_temperature;BME280_humidity;BME280_pressure;Samples;Min_cycle;Max_cycle;Signal;HPM_P1;HPM_P2
2022/01/13 00:00:29;;;;;;;99.65;40.35;;;;;;;-5.45;85.60;102487.06;5105257;28;20027;-71
2022/01/13 00:02:54;;;;;;;96.30;38.97;;;;;;;-5.52;84.86;102481.75;5100258;28;20034;-71
2022/01/13 00:05:26;;;;;;;100.13;39.42;;;;;;;-5.51;84.54;102489.59;5101734;28;20043;-72
2022/01/13 00:07:55;;;;;;;95.53;37.72;;;;;;;-5.57;84.00;102481.72;5100793;28;20077;-72
2022/01/13 00:10:21;;;;;;;101.63;40.58;;;;;;;-5.51;84.28;102499.19;5096528;28;20036;-68
2022/01/13 00:12:47;;;;;;;106.03;40.95;;;;;;;-5.57;83.86;102502.63;5094765;28;20117;-67
2022/01/13 00:18:01;;;;;;;100.85;38.08;;;;;;;-5.60;83.44;102502.59;5101781;28;20054;-68
2022/01/13 00:20:34;;;;;;;100.68;40.20;;;;;;;-5.57;83.12;102513.09;5100370;28;20020;-67
2022/01/13 00:25:45;;;;;;;94.85;38.42;;;;;;;-5.59;83.78;102503.44;5094403;28;20070;-68
2022/01/13 00:28:19;;;;;;;97.30;37.53;;;;;;;-5.62;83.61;102499.06;5101708;28;20108;-67
2022/01/13 00:30:49;;;;;;;97.95;37.28;;;;;;;-5.64;83.83;102497.31;5102273;28;20402;-67
2022/01/13 00:33:17;;;;;;;95.03;40.95;;;;;;;-5.63;83.75;102504.28;5100101;28;20042;-72
2022/01/13 00:35:43;;;;;;;90.50;35.80;;;;;;;-5.64;84.79;102505.13;5099495;28;20059;-70
2022/01/13 00:38:08;;;;;;;98.97;36.83;;;;;;;-5.65;85.46;102498.13;5095765;28;20067;-71
2022/01/13 00:40:34;;;;;;;91.07;34.90;;;;;;;-5.73;85.48;102484.09;5097819;28;20037;-71
2022/01/13 00:42:59;;;;;;;89.40;36.97;;;;;;;-5.63;85.95;102496.44;5105235;28;20042;-71
2022/01/13 00:45:25;;;;;;;87.75;36.38;;;;;;;-5.65;86.50;102499.03;5102117;28;20023;-72
2022/01/13 00:47:50;;;;;;;90.70;35.38;;;;;;;-5.79;86.38;102477.06;5099980;28;20058;-72
2022/01/13 00:50:18;;;;;;;89.15;35.58;;;;;;;-5.66;86.39;102499.00;5099641;28;20388;-72
2022/01/13 00:52:43;;;;;;;90.57;35.80;;;;;;;-5.75;85.89;102489.31;5098464;28;20475;-71
2022/01/13 00:55:14;;;;;;;93.97;36.88;;;;;;;-5.70;86.23;102502.44;5097036;28;20062;-71
2022/01/13 00:57:40;;;;;;;90.30;36.22;;;;;;;-5.72;85.78;102493.69;5097862;28;20043;-72
2022/01/13 01:00:06;;;;;;;90.25;35.60;;;;;;;-5.73;85.94;102487.63;5104267;28;20023;-71
2022/01/13 01:02:32;;;;;;;87.55;37.55;;;;;;;-5.73;86.18;102487.63;5094524;28;20034;-71
2022/01/13 01:04:57;;;;;;;81.70;35.38;;;;;;;-5.78;86.45;102472.72;5096682;28;20028;-71
2022/01/13 01:07:23;;;;;;;91.75;37.42;;;;;;;-5.71;87.02;102490.25;5088492;28;20036;-72
2022/01/13 01:09:50;;;;;;;95.20;36.38;;;;;;;-5.67;87.13;102492.03;5094375;28;20024;-71
2022/01/13 01:12:17;;;;;;;93.40;37.30;;;;;;;-5.70;87.04;102494.59;5091842;28;20472;-72
2022/01/13 01:14:55;;;;;;;92.47;36.47;;;;;;;-5.72;86.46;102499.81;5095652;28;20023;-71
2022/01/13 01:17:20;;;;;;;94.45;37.35;;;;;;;-5.80;86.36;102495.34;5100169;28;20092;-72
2022/01/13 01:19:49;;;;;;;99.75;38.45;;;;;;;-5.88;85.36;102479.59;5103409;28;20048;-71
2022/01/13 01:22:33;;;;;;;96.18;37.58;;;;;;;-5.84;84.59;102491.84;5102813;28;20023;-72
2022/01/13 01:25:17;;;;;;;96.50;38.58;;;;;;;-5.87;84.78;102490.94;5101947;28;20427;-71
2022/01/13 01:27:48;;;;;;;102.47;39.22;;;;;;;-5.88;84.85;102491.78;5095427;28;20494;-71
2022/01/13 01:32:51;;;;;;;96.82;37.75;;;;;;;-5.86;84.43;102500.50;5097036;28;20491;-71
2022/01/13 01:35:18;;;;;;;93.80;37.60;;;;;;;-5.88;83.65;102505.72;5093778;28;20027;-71
2022/01/13 01:37:45;;;;;;;92.32;37.42;;;;;;;-5.91;83.01;102507.41;5093804;28;20030;-72
2022/01/13 01:40:13;;;;;;;92.53;36.63;;;;;;;-5.90;82.43;102514.41;5103932;28;20102;-71
2022/01/13 01:42:40;;;;;;;103.72;39.53;;;;;;;-6.01;82.08;102495.97;5097880;28;20149;-72
2022/01/13 01:45:08;;;;;;;93.13;39.15;;;;;;;-6.01;82.41;102514.25;5102708;28;20482;-71
2022/01/13 01:47:33;;;;;;;95.80;37.85;;;;;;;-6.03;83.07;102512.47;5100887;28;20105;-71
2022/01/13 01:50:10;;;;;;;94.53;36.05;;;;;;;-6.11;83.05;102507.13;5093659;28;20047;-71
2022/01/13 01:52:36;;;;;;;94.35;36.30;;;;;;;-6.08;82.78;102508.91;5089883;28;20028;-72
2022/01/13 01:55:01;;;;;;;98.88;38.50;;;;;;;-6.10;82.87;102511.50;5094325;28;20703;-71
2022/01/13 01:57:27;;;;;;;90.78;35.75;;;;;;;-6.13;82.56;102516.66;5094770;28;20036;-71
2022/01/13 01:59:54;;;;;;;94.13;37.25;;;;;;;-6.24;82.69;102502.59;5096668;28;20038;-71
2022/01/13 02:02:21;;;;;;;86.25;35.20;;;;;;;-6.17;82.66;102511.38;5099401;28;20070;-69
2022/01/13 02:04:47;;;;;;;97.78;36.78;;;;;;;-6.24;82.73;102505.19;5095920;28;20027;-72
2022/01/13 02:07:13;;;;;;;98.78;36.60;;;;;;;-6.18;83.06;102510.53;5098737;28;20028;-71
2022/01/13 02:09:42;;;;;;;83.13;34.05;;;;;;;-6.17;83.68;102514.88;5095933;28;20073;-72
2022/01/13 02:12:13;;;;;;;91.25;37.15;;;;;;;-6.24;83.49;102509.53;5093023;28;20027;-71
2022/01/13 02:14:58;;;;;;;107.07;37.95;;;;;;;-6.30;83.57;102493.78;5107166;28;20080;-71
2022/01/13 02:17:27;;;;;;;92.45;38.53;;;;;;;-6.27;83.79;102510.38;5104653;28;20023;-70
2022/01/13 02:19:56;;;;;;;89.68;36.67;;;;;;;-6.31;84.11;102500.75;5100288;28;20028;-71
2022/01/13 02:22:22;;;;;;;95.43;35.22;;;;;;;-6.29;83.62;102513.81;5104019;28;20538;-71
2022/01/13 02:24:48;;;;;;;83.53;33.97;;;;;;;-6.44;83.37;102487.47;5106817;28;20364;-70
2022/01/13 02:27:14;;;;;;;99.13;37.72;;;;;;;-6.44;83.42;102484.88;5097196;28;20065;-71
2022/01/13 02:29:40;;;;;;;101.68;37.58;;;;;;;-6.36;82.52;102504.16;5108670;28;20032;-71
2022/01/13 02:32:06;;;;;;;86.18;36.15;;;;;;;-6.38;81.62;102509.34;5100309;28;20064;-70
2022/01/13 02:34:32;;;;;;;88.18;36.35;;;;;;;-6.52;81.43;102484.75;5094790;28;20047;-71
2022/01/13 02:36:59;;;;;;;89.20;35.33;;;;;;;-6.44;82.08;102508.34;5104391;28;20020;-70
2022/01/13 02:39:30;;;;;;;95.43;38.72;;;;;;;-6.56;82.12;102482.06;5107869;28;20023;-70
2022/01/13 02:41:56;;;;;;;92.07;37.55;;;;;;;-6.45;82.54;102511.81;5098675;28;20015;-71
2022/01/13 02:44:24;;;;;;;94.15;36.08;;;;;;;-6.62;82.79;102498.50;5095012;28;20140;-72
2022/01/13 02:49:19;;;;;;;99.50;37.30;;;;;;;-6.60;82.35;102514.19;5098569;28;20031;-71
2022/01/13 02:51:49;;;;;;;98.60;36.80;;;;;;;-6.56;82.64;102518.59;5093849;28;20383;-72
2022/01/13 02:54:16;;;;;;;90.25;35.28;;;;;;;-6.57;82.21;102516.84;5104609;28;20391;-71
2022/01/13 02:56:43;;;;;;;89.20;35.70;;;;;;;-6.60;81.50;102514.19;5101725;28;20622;-72
2022/01/13 02:59:09;;;;;;;92.45;35.90;;;;;;;-6.58;80.94;102520.31;5104274;28;20059;-71
2022/01/13 03:01:35;;;;;;;99.28;38.25;;;;;;;-6.59;80.81;102508.09;5098879;28;20054;-70
2022/01/13 03:04:06;;;;;;;91.25;36.65;;;;;;;-6.59;81.39;102501.16;5099045;28;20543;-71
2022/01/13 03:06:36;;;;;;;95.75;37.30;;;;;;;-6.61;82.10;102507.22;5098995;28;20027;-72
2022/01/13 03:09:15;;;;;;;98.18;37.60;;;;;;;-6.58;81.29;102500.28;5099622;28;20036;-71
2022/01/13 03:11:43;;;;;;;97.30;37.38;;;;;;;-6.64;81.41;102492.41;5097056;28;20356;-71
2022/01/13 03:14:10;;;;;;;94.07;37.25;;;;;;;-6.66;81.76;102482.75;5097003;28;20441;-71
2022/01/13 03:16:40;;;;;;;94.88;35.72;;;;;;;-6.61;81.14;102487.19;5094155;28;20052;-70
2022/01/13 03:19:05;;;;;;;99.68;36.60;;;;;;;-6.69;81.15;102475.78;5099935;28;20093;-70
2022/01/13 03:21:31;;;;;;;94.60;37.00;;;;;;;-6.65;81.39;102484.53;5105187;28;20442;-70
2022/01/13 03:23:56;;;;;;;92.55;35.40;;;;;;;-6.62;82.45;102492.41;5103715;28;20084;-71
2022/01/13 03:26:23;;;;;;;96.88;36.70;;;;;;;-6.70;82.68;102484.47;5101877;28;20034;-67
2022/01/13 03:29:24;;;;;;;106.75;39.22;;;;;;;-6.66;83.32;102495.81;5106064;28;20119;-67
2022/01/13 03:31:46;;;;;;;96.82;36.53;;;;;;;-6.61;84.04;102515.03;5100546;28;20055;-68
2022/01/13 03:34:14;;;;;;;103.95;38.40;;;;;;;-6.61;85.30;102509.81;5096034;28;20031;-67
2022/01/13 03:36:41;;;;;;;84.55;34.95;;;;;;;-6.66;86.21;102501.91;5095696;28;20031;-67
2022/01/13 03:39:08;;;;;;;93.95;36.15;;;;;;;-6.61;86.68;102515.03;5100872;28;20509;-67
2022/01/13 03:41:35;;;;;;;102.72;35.00;;;;;;;-6.66;86.24;102512.34;5092284;28;20027;-66
2022/01/13 03:44:06;;;;;;;100.20;38.30;;;;;;;-6.58;86.00;102530.75;5103860;28;20047;-67
2022/01/13 03:46:36;;;;;;;101.05;39.58;;;;;;;-6.56;86.52;102536.84;5107159;28;20042;-68
2022/01/13 03:49:02;;;;;;;90.28;36.45;;;;;;;-6.57;86.33;102549.03;5102298;28;20031;-67
2022/01/13 03:51:59;;;;;;;89.03;35.70;;;;;;;-6.53;85.58;102563.88;5094380;28;20109;-67
2022/01/13 03:54:31;;;;;;;86.63;34.53;;;;;;;-6.59;84.72;102552.44;5099456;28;20441;-66
2022/01/13 03:57:25;;;;;;;98.57;37.60;;;;;;;-6.63;83.91;102558.47;5091773;28;20032;-68
2022/01/13 04:00:42;;;;;;;96.40;36.45;;;;;;;-6.62;83.17;102568.09;5092384;28;20064;-68
2022/01/13 04:03:08;;;;;;;84.88;34.83;;;;;;;-6.72;82.40;102558.31;5079459;28;20046;-67
2022/01/13 04:06:02;;;;;;;90.03;35.47;;;;;;;-6.64;81.90;102562.84;5095066;28;20059;-67
2022/01/13 04:08:28;;;;;;;90.50;36.42;;;;;;;-6.67;81.75;102557.56;5100236;28;20042;-68
2022/01/13 04:11:06;;;;;;;91.40;35.03;;;;;;;-6.74;80.36;102557.41;5100540;28;20031;-68
2022/01/13 04:13:46;;;;;;;89.00;33.45;;;;;;;-6.75;79.74;102563.50;5100288;28;20470;-68
2022/01/13 04:16:17;;;;;;;84.03;32.45;;;;;;;-6.80;79.68;102557.31;5098250;28;20062;-68
2022/01/13 04:18:46;;;;;;;84.10;32.85;;;;;;;-6.85;79.64;102557.22;5103968;28;20043;-67
2022/01/13 04:21:11;;;;;;;86.10;33.78;;;;;;;-6.81;79.31;102566.00;5093175;28;20027;-67
2022/01/13 04:23:37;;;;;;;88.82;35.03;;;;;;;-6.87;78.89;102558.91;5095056;28;20024;-67
2022/01/13 04:26:07;;;;;;;92.20;34.05;;;;;;;-6.78;78.88;102573.88;5094433;28;20471;-68
2022/01/13 04:28:34;;;;;;;95.32;35.30;;;;;;;-6.88;79.36;102530.19;5106776;28;20024;-68
2022/01/13 04:31:03;;;;;;;89.20;34.55;;;;;;;-6.84;79.45;102542.47;5089817;28;20624;-68
2022/01/13 04:33:30;;;;;;;88.15;35.08;;;;;;;-6.84;79.83;102550.28;5097256;28;20038;-68
2022/01/13 04:35:56;;;;;;;84.45;31.98;;;;;;;-6.94;79.20;102514.47;5095155;28;20403;-72
2022/01/13 04:38:22;;;;;;;87.18;32.92;;;;;;;-6.99;79.68;102511.78;5107736;28;20078;-71
2022/01/13 04:40:54;;;;;;;90.93;36.20;;;;;;;-6.88;80.08;102527.59;5102213;28;20439;-71
2022/01/13 04:43:20;;;;;;;86.60;35.75;;;;;;;-7.00;80.88;102499.56;5104282;28;20036;-71
2022/01/13 04:45:45;;;;;;;91.00;35.95;;;;;;;-6.96;81.74;102517.03;5098089;28;20032;-71
2022/01/13 04:48:11;;;;;;;99.20;36.67;;;;;;;-6.90;82.10;102521.47;5100597;28;20043;-71
2022/01/13 04:50:36;;;;;;;89.43;34.60;;;;;;;-6.89;82.49;102510.19;5100640;28;20012;-71
2022/01/13 04:53:02;;;;;;;90.22;35.72;;;;;;;-6.91;82.74;102504.09;5099453;28;20057;-72
2022/01/13 04:55:31;;;;;;;89.60;35.60;;;;;;;-6.88;82.90;102506.72;5100544;28;20027;-70
2022/01/13 04:57:59;;;;;;;87.68;34.67;;;;;;;-6.89;82.65;102487.59;5103249;28;20035;-72
2022/01/13 05:00:25;;;;;;;83.60;35.03;;;;;;;-6.88;83.09;102471.09;5101491;28;20031;-67
2022/01/13 05:02:51;;;;;;;94.63;36.20;;;;;;;-6.80;84.23;102479.06;5094523;28;20043;-68
2022/01/13 05:05:16;;;;;;;94.78;35.85;;;;;;;-6.78;85.76;102474.75;5109001;28;20388;-68
2022/01/13 05:07:42;;;;;;;91.15;35.20;;;;;;;-6.73;87.31;102473.09;5104927;28;20372;-68
2022/01/13 05:10:09;;;;;;;86.47;37.13;;;;;;;-6.69;88.39;102480.09;5096376;28;20467;-67
2022/01/13 05:12:43;;;;;;;98.07;35.78;;;;;;;-6.67;88.61;102479.28;5096476;28;20039;-67
2022/01/13 05:15:17;;;;;;;86.28;35.47;;;;;;;-6.65;89.53;102492.38;5099118;28;20073;-68
2022/01/13 05:20:21;;;;;;;92.53;36.33;;;;;;;-6.60;89.81;102490.69;5104833;28;20046;-67
2022/01/13 05:22:48;;;;;;;90.43;36.45;;;;;;;-6.53;89.60;102510.81;5101445;28;20379;-67
2022/01/13 05:25:15;;;;;;;105.60;39.42;;;;;;;-6.58;89.65;102515.94;5088594;28;20437;-68
2022/01/13 05:27:41;;;;;;;92.40;36.95;;;;;;;-6.47;90.18;102518.75;5097943;28;20114;-67
2022/01/13 05:30:08;;;;;;;93.40;35.75;;;;;;;-6.46;89.62;102525.72;5104289;28;20530;-68
2022/01/13 05:32:33;;;;;;;97.63;37.60;;;;;;;-6.53;89.08;102518.63;5099502;28;20056;-68
2022/01/13 05:34:59;;;;;;;106.32;42.58;;;;;;;-6.49;88.43;102526.53;5103286;28;20115;-68
2022/01/13 05:37:24;;;;;;;93.75;37.92;;;;;;;-6.49;88.83;102515.25;5093628;28;20035;-68
2022/01/13 05:39:50;;;;;;;112.07;43.75;;;;;;;-6.45;88.79;102540.53;5094782;28;20024;-68
2022/01/13 05:42:15;;;;;;;109.75;42.75;;;;;;;-6.49;88.63;102557.84;5095226;28;20529;-67
2022/01/13 05:44:41;;;;;;;105.53;42.67;;;;;;;-6.46;88.27;102572.69;5095017;28;20061;-68
2022/01/13 05:47:09;;;;;;;103.53;42.15;;;;;;;-6.47;88.96;102565.72;5100301;28;20501;-68
2022/01/13 05:49:35;;;;;;;104.95;44.28;;;;;;;-6.45;88.51;102571.84;5097202;28;20036;-67
2022/01/13 05:52:01;;;;;;;113.07;43.85;;;;;;;-6.45;88.44;102564.88;5103326;28;20039;-68
2022/01/13 05:54:26;;;;;;;107.57;42.15;;;;;;;-6.56;88.07;102561.22;5096138;28;20027;-67
2022/01/13 05:56:52;;;;;;;111.00;42.65;;;;;;;-6.51;88.59;102563.91;5091166;28;20060;-67
2022/01/13 05:59:19;;;;;;;113.57;43.28;;;;;;;-6.56;87.70;102560.34;5096280;28;20027;-68
2022/01/13 06:01:44;;;;;;;106.60;41.95;;;;;;;-6.50;87.37;102570.88;5102796;28;20028;-68
2022/01/13 06:04:10;;;;;;;103.70;42.40;;;;;;;-6.47;86.94;102579.66;5102577;28;20443;-68
2022/01/13 06:06:35;;;;;;;104.80;40.70;;;;;;;-6.54;87.36;102571.69;5092048;28;20036;-68
2022/01/13 06:09:00;;;;;;;106.28;43.42;;;;;;;-6.51;86.75;102580.47;5088797;28;20028;-66
2022/01/13 06:11:34;;;;;;;101.35;41.95;;;;;;;-6.52;86.60;102588.25;5096555;28;20028;-68
2022/01/13 06:13:59;;;;;;;105.25;42.22;;;;;;;-6.55;86.44;102578.63;5096702;28;20688;-68
2022/01/13 06:16:25;;;;;;;109.10;40.80;;;;;;;-6.58;85.87;102562.91;5092754;28;20040;-67
2022/01/13 06:18:50;;;;;;;103.85;41.13;;;;;;;-6.72;85.63;102546.16;5092432;28;20087;-68
2022/01/13 06:21:16;;;;;;;107.70;41.92;;;;;;;-6.59;86.10;102576.81;5095363;28;20028;-67
2022/01/13 06:23:41;;;;;;;104.03;43.65;;;;;;;-6.59;86.91;102563.78;5098956;28;20027;-68
2022/01/13 06:26:07;;;;;;;106.35;44.05;;;;;;;-6.59;88.36;102568.09;5089746;28;20024;-69
2022/01/13 06:28:32;;;;;;;111.80;41.47;;;;;;;-6.64;88.85;102552.41;5090152;28;20028;-68
2022/01/13 06:30:58;;;;;;;108.32;41.90;;;;;;;-6.56;89.31;102566.44;5094671;28;20031;-67
2022/01/13 06:33:23;;;;;;;110.63;45.38;;;;;;;-6.58;89.35;102560.31;5086683;28;20132;-67
2022/01/13 06:35:50;;;;;;;102.63;43.63;;;;;;;-6.59;89.29;102555.94;5095401;28;20039;-67
2022/01/13 06:38:15;;;;;;;119.30;43.35;;;;;;;-6.54;89.29;102556.91;5091505;28;20485;-67
2022/01/13 06:40:42;;;;;;;111.22;45.97;;;;;;;-6.53;89.30;102556.06;5103986;28;20019;-65
2022/01/13 06:43:07;;;;;;;112.80;43.33;;;;;;;-6.52;89.24;102555.19;5093736;28;20482;-68
2022/01/13 06:45:33;;;;;;;115.18;43.60;;;;;;;-6.55;89.18;102539.47;5091987;28;20032;-68
2022/01/13 06:47:58;;;;;;;120.05;49.40;;;;;;;-6.50;89.34;102537.84;5105362;28;20024;-69
2022/01/13 06:50:24;;;;;;;120.97;47.92;;;;;;;-6.46;89.71;102546.59;5098530;28;20032;-67
2022/01/13 06:52:49;;;;;;;108.72;45.95;;;;;;;-6.45;90.07;102543.16;5088559;28;20111;-67
2022/01/13 06:55:15;;;;;;;105.47;45.00;;;;;;;-6.42;90.27;102537.97;5098707;28;20031;-68
2022/01/13 06:57:41;;;;;;;116.75;46.70;;;;;;;-6.42;90.66;102543.19;5094351;28;20036;-68
2022/01/13 07:00:07;;;;;;;117.97;47.40;;;;;;;-6.38;90.90;102539.78;5097097;28;20047;-68
2022/01/13 07:02:33;;;;;;;114.63;47.47;;;;;;;-6.32;91.00;102551.19;5087924;28;20353;-68
2022/01/13 07:04:59;;;;;;;116.97;43.80;;;;;;;-6.32;90.90;102540.72;5093524;28;20668;-68
2022/01/13 07:07:25;;;;;;;123.30;48.13;;;;;;;-6.28;91.15;102532.13;5097659;28;20034;-68
2022/01/13 07:09:50;;;;;;;113.82;46.72;;;;;;;-6.27;91.16;102523.44;5110649;28;20107;-67
2022/01/13 07:12:16;;;;;;;108.82;43.17;;;;;;;-6.22;91.30;102533.94;5108582;28;20102;-68
2022/01/13 07:14:41;;;;;;;112.53;42.92;;;;;;;-6.32;91.46;102505.94;5102451;28;20047;-67
2022/01/13 07:17:07;;;;;;;103.47;41.40;;;;;;;-6.11;92.14;102542.81;5109496;28;20106;-68
2022/01/13 07:19:32;;;;;;;106.85;42.35;;;;;;;-6.08;92.39;102553.31;5096267;28;20048;-68
2022/01/13 07:21:58;;;;;;;99.90;43.28;;;;;;;-6.05;92.50;102553.34;5091690;28;20501;-67
2022/01/13 07:24:24;;;;;;;113.50;42.13;;;;;;;-5.98;92.71;102563.03;5090398;28;20479;-68
2022/01/13 07:26:49;;;;;;;108.68;42.53;;;;;;;-6.00;93.17;102551.69;5093090;28;20072;-68
2022/01/13 07:29:15;;;;;;;95.13;40.95;;;;;;;-5.88;92.94;102577.97;5100578;28;20407;-68
2022/01/13 07:31:40;;;;;;;110.20;44.03;;;;;;;-5.90;93.30;102564.88;5095833;28;20035;-68
2022/01/13 07:34:06;;;;;;;105.85;42.30;;;;;;;-5.79;93.21;102562.41;5095727;28;20059;-68
2022/01/13 07:36:32;;;;;;;94.88;41.67;;;;;;;-5.69;93.26;102551.22;5099862;28;20584;-66
2022/01/13 07:38:58;;;;;;;101.60;41.83;;;;;;;-5.64;93.30;102546.94;5099680;28;20051;-67
2022/01/13 07:41:23;;;;;;;97.05;40.70;;;;;;;-5.57;92.94;102551.41;5096777;28;20020;-66
2022/01/13 07:43:54;;;;;;;109.20;43.33;;;;;;;-5.53;92.97;102542.72;5095536;28;20020;-68
2022/01/13 07:46:21;;;;;;;109.65;42.85;;;;;;;-5.56;92.65;102545.31;5100827;28;20022;-67
2022/01/13 07:48:46;;;;;;;94.15;40.30;;;;;;;-5.49;92.29;102539.28;5100770;28;20390;-68
2022/01/13 07:51:12;;;;;;;105.25;44.03;;;;;;;-5.31;92.59;102569.19;5088035;28;20036;-67
2022/01/13 07:53:37;;;;;;;109.93;46.40;;;;;;;-5.30;92.55;102575.25;5096086;28;20055;-67
2022/01/13 07:56:03;;;;;;;106.82;43.58;;;;;;;-5.26;92.52;102564.88;5090238;28;20098;-66
2022/01/13 07:58:29;;;;;;;113.13;43.60;;;;;;;-5.13;92.68;102584.22;5107148;28;20119;-66
2022/01/13 08:00:54;;;;;;;108.32;44.55;;;;;;;-5.06;92.70;102593.88;5098679;27;20088;-68
2022/01/13 08:03:19;;;;;;;110.80;43.60;;;;;;;-4.99;92.93;102593.94;5110011;28;20027;-66
2022/01/13 08:05:45;;;;;;;115.40;45.00;;;;;;;-4.89;92.73;102581.88;5104536;28;20032;-66
2022/01/13 08:08:10;;;;;;;108.60;44.25;;;;;;;-4.87;92.46;102580.16;5109612;28;20065;-68
2022/01/13 08:10:36;;;;;;;115.47;46.75;;;;;;;-4.81;93.09;102588.03;5101561;28;20103;-68
2022/01/13 08:13:01;;;;;;;112.32;44.88;;;;;;;-4.75;93.40;102582.88;5104638;28;20738;-69
2022/01/13 08:15:28;;;;;;;104.40;43.50;;;;;;;-4.78;93.77;102565.41;5092558;28;20032;-67
2022/01/13 08:20:37;;;;;;;112.85;44.00;;;;;;;-4.62;93.64;102571.66;5107111;28;20410;-68
2022/01/13 08:23:03;;;;;;;105.72;43.35;;;;;;;-4.59;94.01;102571.69;5109515;28;20027;-68
2022/01/13 08:25:32;;;;;;;101.35;41.17;;;;;;;-4.53;94.48;102571.75;5102104;28;20036;-67
2022/01/13 08:27:58;;;;;;;110.32;43.80;;;;;;;-4.49;94.49;102567.44;5091660;28;20054;-68
2022/01/13 08:30:24;;;;;;;104.82;42.22;;;;;;;-4.38;94.78;102574.53;5096342;28;20039;-68
2022/01/13 08:32:49;;;;;;;106.90;41.75;;;;;;;-4.31;95.17;102565.88;5109114;28;20035;-67
2022/01/13 08:35:15;;;;;;;102.35;42.83;;;;;;;-4.23;94.68;102565.94;5103906;28;20135;-68
2022/01/13 08:37:41;;;;;;;110.63;45.50;;;;;;;-4.21;94.77;102548.47;5094968;28;20507;-68
2022/01/13 08:40:10;;;;;;;102.07;44.45;;;;;;;-4.07;94.85;102568.66;5091337;28;20043;-68
2022/01/13 08:42:36;;;;;;;100.43;41.20;;;;;;;-4.03;94.82;102569.56;5089251;28;20092;-68
2022/01/13 08:45:04;;;;;;;111.53;43.42;;;;;;;-3.90;95.09;102568.78;5091444;28;20027;-68
2022/01/13 08:47:30;;;;;;;98.68;41.17;;;;;;;-3.78;94.17;102556.63;5091549;28;20051;-71
2022/01/13 08:49:55;;;;;;;91.70;40.28;;;;;;;-3.75;94.32;102555.75;5094569;28;20050;-71
2022/01/13 08:52:21;;;;;;;92.80;41.20;;;;;;;-3.66;94.32;102556.72;5098979;28;20062;-71
2022/01/13 08:54:47;;;;;;;102.18;42.28;;;;;;;-3.61;94.08;102565.47;5095774;28;20024;-72
2022/01/13 08:57:14;;;;;;;99.22;42.63;;;;;;;-3.52;94.07;102573.38;5097602;28;20042;-71
2022/01/13 08:59:39;;;;;;;101.78;39.15;;;;;;;-3.46;94.90;102570.81;5105546;28;20046;-71
2022/01/13 09:02:05;;;;;;;93.90;39.17;;;;;;;-3.32;94.56;102584.00;5097207;28;20024;-71
2022/01/13 09:04:30;;;;;;;91.45;39.17;;;;;;;-3.25;94.08;102577.91;5102182;28;20032;-70
2022/01/13 09:06:56;;;;;;;93.90;39.25;;;;;;;-3.07;93.96;102589.34;5102684;28;20038;-71
2022/01/13 09:09:22;;;;;;;84.38;37.10;;;;;;;-2.94;93.22;102593.75;5099590;28;20024;-71
2022/01/13 09:11:47;;;;;;;95.30;40.05;;;;;;;-2.87;91.98;102578.91;5104932;28;20438;-72
2022/01/13 09:14:15;;;;;;;89.97;39.90;;;;;;;-2.85;92.27;102587.66;5100493;28;20023;-71
2022/01/13 09:16:46;;;;;;;92.57;38.17;;;;;;;-2.72;92.18;102610.44;5097267;28;20376;-71
2022/01/13 09:19:14;;;;;;;83.55;36.03;;;;;;;-2.76;92.21;102585.94;5100848;28;20043;-70
2022/01/13 09:21:44;;;;;;;92.85;38.92;;;;;;;-2.58;92.43;102595.63;5103888;28;20035;-72
2022/01/13 09:24:15;;;;;;;89.32;38.55;;;;;;;-2.50;92.03;102594.75;5098586;28;20035;-71
2022/01/13 09:26:41;;;;;;;86.63;39.00;;;;;;;-2.44;91.98;102601.75;5091220;28;20084;-71
2022/01/13 09:29:08;;;;;;;87.47;37.20;;;;;;;-2.37;91.99;102588.66;5096693;28;20539;-71
2022/01/13 09:31:38;;;;;;;97.88;39.55;;;;;;;-2.44;91.86;102581.63;5103240;28;20061;-71
2022/01/13 09:34:05;;;;;;;93.45;38.00;;;;;;;-2.28;91.93;102609.66;5094557;28;20027;-71
2022/01/13 09:36:32;;;;;;;96.53;37.03;;;;;;;-2.27;92.15;102610.53;5100433;28;20127;-71
2022/01/13 09:38:59;;;;;;;86.90;37.38;;;;;;;-2.18;92.09;102609.66;5096952;28;20085;-72
2022/01/13 09:41:29;;;;;;;90.50;37.13;;;;;;;-2.19;92.07;102593.03;5098908;28;20020;-72
2022/01/13 09:43:55;;;;;;;86.53;37.72;;;;;;;-2.02;91.94;102614.06;5097761;28;20020;-68
2022/01/13 09:46:22;;;;;;;89.53;38.70;;;;;;;-1.92;91.29;102605.28;5087917;28;20164;-68
2022/01/13 09:48:49;;;;;;;94.22;38.45;;;;;;;-1.80;91.02;102613.16;5099249;28;20020;-67
2022/01/13 09:51:15;;;;;;;91.78;38.58;;;;;;;-1.77;90.88;102607.91;5099615;28;20043;-67
2022/01/13 09:53:40;;;;;;;93.78;39.63;;;;;;;-1.76;90.81;102593.88;5087979;28;20032;-67
2022/01/13 09:56:07;;;;;;;91.10;38.00;;;;;;;-1.61;91.08;102591.22;5102129;28;20019;-69
2022/01/13 09:58:32;;;;;;;91.97;39.70;;;;;;;-1.42;90.05;102590.31;5094861;28;20138;-67
2022/01/13 10:00:58;;;;;;;92.97;38.97;;;;;;;-1.40;89.90;102588.53;5093578;28;20115;-67
2022/01/13 10:03:26;;;;;;;93.45;38.20;;;;;;;-1.42;89.91;102561.38;5099774;28;20103;-67
2022/01/13 10:05:59;;;;;;;86.75;37.22;;;;;;;-1.20;89.75;102573.53;5088796;28;20520;-67
2022/01/13 10:08:47;;;;;;;90.05;38.10;;;;;;;-1.15;89.55;102570.03;5097394;28;21512;-67
2022/01/13 10:11:48;;;;;;;90.78;38.15;;;;;;;-1.06;89.28;102566.47;5103048;28;20036;-67
2022/01/13 10:16:23;;;;;;;92.88;41.25;;;;;;;-1.04;89.18;102543.63;5097764;28;20355;-71
2022/01/13 10:17:07;;;;;;;91.15;41.42;;;;;;;-0.94;89.05;102547.97;5096257;28;20040;-71
2022/01/13 10:19:38;;;;;;;87.57;39.90;;;;;;;-0.89;89.04;102540.94;5090002;28;20051;-72
2022/01/13 10:22:10;;;;;;;90.75;39.60;;;;;;;-0.78;88.99;102547.00;5095534;28;20074;-71
2022/01/13 10:24:38;;;;;;;92.63;38.30;;;;;;;-0.68;88.59;102530.28;5095734;28;20446;-67
2022/01/13 10:27:08;;;;;;;82.03;37.42;;;;;;;-0.61;88.58;102524.06;5098311;28;20024;-68
2022/01/13 10:29:40;;;;;;;80.85;36.80;;;;;;;-0.53;88.55;102511.69;5093548;28;20495;-67
2022/01/13 10:32:08;;;;;;;89.80;37.75;;;;;;;-0.55;88.17;102495.91;5087458;28;20031;-65
2022/01/13 10:34:36;;;;;;;80.53;35.40;;;;;;;-0.46;88.23;102482.66;5093542;28;20563;-67
2022/01/13 10:37:14;;;;;;;84.93;36.05;;;;;;;-0.29;87.79;102498.34;5090121;28;20028;-67
2022/01/13 10:40:01;;;;;;;83.47;36.38;;;;;;;-0.25;87.80;102485.09;5105415;28;20019;-67
2022/01/13 10:44:59;;;;;;;80.93;37.28;;;;;;;-0.09;87.87;102472.66;5095701;28;20023;-67
2022/01/13 10:47:30;;;;;;;83.20;35.88;;;;;;;-0.02;87.56;102461.16;5094304;28;20107;-67
2022/01/13 10:50:01;;;;;;;81.03;36.13;;;;;;;0.09;87.42;102472.44;5100418;28;20023;-67
2022/01/13 10:52:28;;;;;;;85.22;36.80;;;;;;;0.12;87.25;102455.72;5100654;28;20080;-67
2022/01/13 10:55:07;;;;;;;81.13;34.47;;;;;;;0.24;87.06;102464.38;5098730;28;20031;-67
2022/01/13 10:57:33;;;;;;;83.85;36.53;;;;;;;0.21;86.79;102440.66;5090509;28;20039;-67
2022/01/13 10:59:59;;;;;;;77.68;35.75;;;;;;;0.38;87.04;102456.28;5097186;28;20027;-68
2022/01/13 11:02:25;;;;;;;81.85;35.92;;;;;;;0.44;87.04;102438.59;5098513;28;20028;-67
2022/01/13 11:04:51;;;;;;;82.75;36.92;;;;;;;0.55;86.56;102447.25;5104668;28;20024;-68
2022/01/13 11:07:18;;;;;;;74.38;33.42;;;;;;;0.66;86.40;102450.63;5091372;28;20111;-67
2022/01/13 11:09:58;;;;;;;80.07;34.10;;;;;;;0.69;86.53;102453.25;5107817;27;20020;-68
2022/01/13 11:12:29;;;;;;;75.05;33.28;;;;;;;0.71;86.70;102451.44;5102552;28;20028;-67
2022/01/13 11:15:00;;;;;;;84.40;36.38;;;;;;;0.80;86.51;102447.81;5109911;28;20031;-67
2022/01/13 11:17:26;;;;;;;73.30;34.28;;;;;;;0.88;86.59;102446.81;5096832;28;20282;-67
2022/01/13 11:19:51;;;;;;;76.43;34.97;;;;;;;0.96;86.91;102431.72;5102498;28;20143;-67
2022/01/13 11:22:17;;;;;;;76.80;34.58;;;;;;;0.96;87.18;102428.19;5105066;28;20020;-67
2022/01/13 11:24:44;;;;;;;76.60;34.78;;;;;;;1.03;87.13;102438.63;5099233;28;20454;-67
2022/01/13 11:27:12;;;;;;;73.22;35.75;;;;;;;1.13;86.93;102445.53;5106529;28;20403;-67
2022/01/13 11:29:39;;;;;;;75.20;34.40;;;;;;;1.18;87.15;102434.88;5105009;28;20176;-67